Lorain, Ohio
Current Conditions -  °F | °C
As of 6:53 AM on Sunday 23 Nov 2014 (Local Time) from KLPR Reporting Station
Overcast Overcast  
Wind Chill: 38°   Ceiling: 3100
Heat Index: 43°   Visibility: 10mi
Dew Point: 41°   Wind: 9mph
Humidity: 93%   Direction: 170°S
Pressure: 30.01"   Gusts: NA
Location:  41.47°N, 82.18°W
Report Text: KLPR 231153Z AUTO 17008KT 10SM BKN031 BKN045 OVC055 06/05 A3001 RMK AO2 RAE52 SLP166 P0001 60007 70020 T00610050 10100 20061 58005 TSNO
Loading
Personal Weather Stations






























Interactive Weather Map New forecast layout! Learn more

10-Day Weather Forecast

Advertisements
Track Severe Weather on mobile